Time;durP1;ratioP1;P1;durP2;ratioP2;P2;SDS_P1;SDS_P2;PMS_P1;PMS_P2;Temp;Humidity;BMP_temperature;BMP_pressure;BME280_temperature;BME280_humidity;BME280_pressure;Samples;Min_cycle;Max_cycle;Signal;HPM_P1;HPM_P2
2022/10/21 00:00:56;;;;;;;26.98;21.00;;;11.10;99.90;;;;;;4909150;29;20060;-84
2022/10/21 00:03:23;;;;;;;42.00;23.08;;;11.10;99.90;;;;;;4917140;29;20039;-84
2022/10/21 00:05:51;;;;;;;38.22;25.40;;;11.10;99.90;;;;;;4928741;29;20058;-84
2022/10/21 00:08:17;;;;;;;29.67;22.10;;;12.00;99.90;;;;;;4943909;28;20079;-84
2022/10/21 00:10:43;;;;;;;34.78;23.55;;;11.10;99.90;;;;;;4909443;29;20051;-84
2022/10/21 00:13:08;;;;;;;39.60;25.80;;;11.10;99.90;;;;;;4945015;28;20040;-84
2022/10/21 00:15:40;;;;;;;31.45;21.60;;;11.20;99.90;;;;;;4898757;29;20044;-84
2022/10/21 00:18:05;;;;;;;42.63;26.45;;;11.20;99.90;;;;;;4925164;29;20047;-84
2022/10/21 00:20:31;;;;;;;30.75;22.92;;;11.10;99.90;;;;;;4939304;28;20409;-84
2022/10/21 00:23:02;;;;;;;33.13;22.77;;;11.10;99.90;;;;;;4931691;29;20044;-84
2022/10/21 00:25:28;;;;;;;36.65;20.85;;;11.10;99.90;;;;;;4908956;29;20131;-84
2022/10/21 00:27:53;;;;;;;30.02;21.55;;;11.00;99.90;;;;;;4923174;29;20126;-84
2022/10/21 00:30:19;;;;;;;43.92;24.77;;;11.00;99.90;;;;;;4931359;29;20040;-84
2022/10/21 00:32:44;;;;;;;49.17;27.70;;;11.00;99.90;;;;;;4938724;28;20043;-84
2022/10/21 00:35:26;;;;;;;46.25;28.17;;;11.00;99.90;;;;;;4926931;29;20043;-84
2022/10/21 00:37:52;;;;;;;39.22;25.48;;;11.00;99.90;;;;;;4926060;29;20043;-84
2022/10/21 00:40:17;;;;;;;49.05;28.48;;;11.00;99.90;;;;;;4927903;29;20047;-84
2022/10/21 00:42:48;;;;;;;40.05;25.27;;;11.10;99.90;;;;;;4934703;29;20055;-84
2022/10/21 00:45:20;;;;;;;31.92;23.42;;;11.30;99.90;;;;;;4941512;28;20042;-83
2022/10/21 00:48:15;;;;;;;42.35;26.58;;;11.10;99.90;;;;;;4943950;28;20040;-84
2022/10/21 00:50:47;;;;;;;30.42;21.25;;;11.10;99.90;;;;;;4918399;29;20050;-84
2022/10/21 00:53:17;;;;;;;29.40;23.00;;;11.00;99.90;;;;;;4925118;29;20126;-84
2022/10/21 00:55:47;;;;;;;23.15;19.45;;;10.90;99.90;;;;;;4928227;29;20047;-84
2022/10/21 00:58:15;;;;;;;25.48;19.50;;;11.00;99.90;;;;;;4948619;28;20044;-84
2022/10/21 01:00:46;;;;;;;29.00;21.52;;;10.90;99.90;;;;;;4924993;29;20043;-84
2022/10/21 01:03:33;;;;;;;65.18;31.60;;;10.90;99.90;;;;;;4927709;29;20059;-84
2022/10/21 01:06:06;;;;;;;25.52;19.85;;;10.90;99.90;;;;;;4928588;29;20036;-84
2022/10/21 01:08:33;;;;;;;44.92;27.52;;;10.90;99.90;;;;;;4932984;29;20040;-84
2022/10/21 01:11:23;;;;;;;30.17;22.20;;;10.90;99.90;;;;;;4910208;29;20122;-84
2022/10/21 01:13:59;;;;;;;24.45;19.30;;;10.90;99.90;;;;;;4940809;28;20032;-84
2022/10/21 01:16:35;;;;;;;;;;;11.00;99.90;;;;;;4930031;29;20068;-84
2022/10/21 01:19:33;;;;;;;36.47;21.52;;;11.40;99.90;;;;;;4919593;29;19930;-84
2022/10/21 01:22:21;;;;;;;30.65;20.83;;;10.90;99.90;;;;;;4907997;29;20055;-84
2022/10/21 01:25:23;;;;;;;33.58;22.92;;;11.00;99.90;;;;;;4939800;28;20417;-84
2022/10/21 01:28:20;;;;;;;37.42;23.50;;;11.00;99.90;;;;;;4919339;29;20075;-84
2022/10/21 01:31:03;;;;;;;33.55;24.45;;;11.00;99.90;;;;;;4929575;29;20488;-84
2022/10/21 01:33:58;;;;;;;31.58;21.45;;;11.00;99.90;;;;;;4902113;29;20127;-84
2022/10/21 01:37:16;;;;;;;23.67;20.08;;;11.10;99.90;;;;;;4912804;29;20240;-84
2022/10/21 01:40:11;;;;;;;40.25;24.13;;;11.00;99.90;;;;;;4932192;29;20043;-84
2022/10/21 01:43:11;;;;;;;27.98;20.30;;;11.00;99.90;;;;;;4887477;29;20064;-84
2022/10/21 01:45:52;;;;;;;34.35;23.00;;;11.00;99.90;;;;;;4911404;29;20508;-84
2022/10/21 01:48:32;;;;;;;36.05;24.42;;;11.00;99.90;;;;;;4929859;29;20036;-85
2022/10/21 01:51:01;;;;;;;37.10;25.02;;;11.10;99.90;;;;;;4933404;29;20036;-84
2022/10/21 01:53:31;;;;;;;38.10;23.80;;;11.10;99.90;;;;;;4928775;29;20148;-83
2022/10/21 01:56:03;;;;;;;41.50;25.45;;;11.20;99.90;;;;;;4944941;28;20039;-84
2022/10/21 01:58:33;;;;;;;42.25;25.77;;;11.30;99.90;;;;;;4911280;29;20040;-84
2022/10/21 02:01:01;;;;;;;36.42;26.85;;;11.40;99.90;;;;;;4932985;29;20067;-84
2022/10/21 02:03:51;;;;;;;46.78;28.75;;;11.40;99.90;;;;;;4942031;28;20050;-84
2022/10/21 02:06:17;;;;;;;36.30;25.45;;;11.40;99.90;;;;;;4932670;29;20091;-84
2022/10/21 02:08:47;;;;;;;40.45;27.40;;;11.50;99.90;;;;;;4929673;29;20114;-85
2022/10/21 02:11:20;;;;;;;41.63;26.40;;;11.60;99.90;;;;;;4930855;29;20036;-84
2022/10/21 02:14:03;;;;;;;39.22;26.10;;;11.60;99.90;;;;;;4944649;28;20051;-84
2022/10/21 02:16:38;;;;;;;36.10;24.92;;;11.70;99.90;;;;;;4918087;29;20607;-84
2022/10/21 02:19:22;;;;;;;39.17;25.90;;;11.80;99.90;;;;;;4916921;29;20046;-84
2022/10/21 02:21:54;;;;;;;41.70;27.05;;;11.80;99.90;;;;;;4909900;29;20036;-85
2022/10/21 02:24:59;;;;;;;38.47;25.80;;;11.90;99.90;;;;;;4925314;29;20044;-84
2022/10/21 02:27:40;;;;;;;46.65;25.98;;;12.00;99.90;;;;;;4915709;29;20052;-84
2022/10/21 02:30:07;;;;;;;49.25;27.48;;;12.10;99.90;;;;;;4901197;29;20050;-84
2022/10/21 02:32:47;;;;;;;51.08;29.70;;;12.20;99.90;;;;;;4894441;29;20126;-84
2022/10/21 02:35:56;;;;;;;44.83;28.05;;;12.20;99.90;;;;;;4938864;29;20440;-84
2022/10/21 02:38:32;;;;;;;47.75;28.38;;;12.20;99.90;;;;;;4938339;28;20536;-83
2022/10/21 02:41:36;;;;;;;48.85;27.85;;;12.30;99.90;;;;;;4909611;29;20035;-83
2022/10/21 02:44:32;;;;;;;47.25;28.75;;;12.20;99.90;;;;;;4925321;29;20127;-84
2022/10/21 02:47:19;;;;;;;51.05;29.40;;;12.30;99.90;;;;;;4914996;29;20492;-84
2022/10/21 02:50:07;;;;;;;50.85;28.50;;;12.40;99.90;;;;;;4940690;28;20035;-84
2022/10/21 02:53:30;;;;;;;46.47;28.45;;;12.30;99.90;;;;;;4899604;29;20524;-84
2022/10/21 02:56:11;;;;;;;50.13;29.77;;;12.40;99.90;;;;;;4930725;29;20123;-84
2022/10/21 02:58:57;;;;;;;39.53;26.83;;;12.40;99.90;;;;;;4925722;29;20130;-85
2022/10/21 03:01:28;;;;;;;40.10;27.50;;;12.40;99.90;;;;;;4930141;29;20032;-85
2022/10/21 03:04:13;;;;;;;48.58;28.55;;;12.40;99.90;;;;;;4932750;29;20044;-84
2022/10/21 03:06:38;;;;;;;56.35;31.20;;;12.40;99.90;;;;;;4927288;29;20915;-84
2022/10/21 03:09:07;;;;;;;50.17;29.90;;;12.40;99.90;;;;;;4910368;29;20181;-84
2022/10/21 03:11:32;;;;;;;51.38;31.05;;;12.40;99.90;;;;;;4922746;29;20382;-84
2022/10/21 03:13:58;;;;;;;59.53;30.75;;;12.30;99.90;;;;;;4943398;28;20050;-84
2022/10/21 03:16:24;;;;;;;44.85;29.20;;;12.30;99.90;;;;;;4939479;28;20126;-85
2022/10/21 03:18:50;;;;;;;53.80;30.90;;;12.30;99.90;;;;;;4941753;28;20484;-85
2022/10/21 03:21:24;;;;;;;45.42;28.30;;;12.30;99.90;;;;;;4939976;28;20567;-84
2022/10/21 03:23:50;;;;;;;81.65;36.72;;;12.20;99.90;;;;;;4913584;29;20080;-84
2022/10/21 03:26:15;;;;;;;38.50;24.63;;;12.20;99.90;;;;;;4923672;29;20071;-84
2022/10/21 03:28:41;;;;;;;56.53;29.23;;;12.20;99.90;;;;;;4942777;28;20063;-84
2022/10/21 03:31:16;;;;;;;47.40;27.05;;;12.20;99.90;;;;;;4940880;28;20123;-84
2022/10/21 03:33:41;;;;;;;38.20;24.85;;;12.20;99.90;;;;;;4913657;29;20052;-84
2022/10/21 03:36:10;;;;;;;50.60;29.23;;;12.20;99.90;;;;;;4941061;28;20578;-84
2022/10/21 03:38:35;;;;;;;35.92;25.63;;;12.20;99.90;;;;;;4923624;29;20048;-84
2022/10/21 03:41:44;;;;;;;36.83;25.77;;;12.20;99.90;;;;;;4910582;29;20050;-84
2022/10/21 03:44:14;;;;;;;29.38;21.70;;;12.40;99.90;;;;;;4925244;29;20148;-84
2022/10/21 03:46:39;;;;;;;66.60;24.52;;;12.20;99.90;;;;;;4930821;29;20086;-84
2022/10/21 03:49:10;;;;;;;39.65;20.15;;;12.00;99.90;;;;;;4938077;28;20036;-85
2022/10/21 03:51:35;;;;;;;28.52;21.40;;;11.60;99.90;;;;;;4926415;29;20040;-84
2022/10/21 03:54:04;;;;;;;32.28;22.00;;;12.00;99.90;;;;;;4930163;29;20087;-85
2022/10/21 03:56:32;;;;;;;42.22;19.50;;;11.90;99.90;;;;;;4929722;29;20047;-84
2022/10/21 03:59:07;;;;;;;369.63;33.90;;;11.90;99.90;;;;;;4941692;28;20067;-84
2022/10/21 04:01:32;;;;;;;605.43;41.67;;;11.80;99.90;;;;;;4925072;29;20520;-84
2022/10/21 04:04:01;;;;;;;219.77;26.85;;;11.80;99.90;;;;;;4921914;29;20048;-85
2022/10/21 04:06:26;;;;;;;272.15;28.45;;;11.70;99.90;;;;;;4944868;28;20513;-85
2022/10/21 04:08:54;;;;;;;491.98;42.13;;;12.30;99.90;;;;;;4938732;28;20040;-85
2022/10/21 04:11:22;;;;;;;355.35;30.27;;;11.70;99.90;;;;;;4907144;29;20040;-84
2022/10/21 04:13:48;;;;;;;148.25;19.13;;;11.70;99.90;;;;;;4925181;29;20051;-84
2022/10/21 04:16:19;;;;;;;92.47;20.33;;;11.70;99.90;;;;;;4945275;28;20079;-84
2022/10/21 04:18:51;;;;;;;82.38;18.10;;;11.60;99.90;;;;;;4917406;29;20044;-85
2022/10/21 04:21:18;;;;;;;20.73;15.27;;;11.20;99.90;;;;;;4919577;29;20043;-85
2022/10/21 04:23:43;;;;;;;44.25;18.23;;;12.50;99.90;;;;;;4912111;29;20050;-84
2022/10/21 04:26:10;;;;;;;119.15;19.27;;;11.60;99.90;;;;;;4913614;29;20391;-84
2022/10/21 04:28:36;;;;;;;100.72;26.77;;;11.60;99.90;;;;;;4928520;29;20040;-85
2022/10/21 04:31:02;;;;;;;53.63;26.20;;;11.60;99.90;;;;;;4914110;29;20039;-84
2022/10/21 04:33:28;;;;;;;68.97;27.70;;;11.70;99.90;;;;;;4948202;28;20120;-84
2022/10/21 04:35:55;;;;;;;38.28;21.85;;;11.70;99.90;;;;;;4929967;29;20040;-84
2022/10/21 04:38:22;;;;;;;94.00;33.70;;;11.70;99.90;;;;;;4910984;29;20044;-84
2022/10/21 04:40:55;;;;;;;59.88;29.80;;;11.70;99.90;;;;;;4912452;29;20480;-84
2022/10/21 04:43:28;;;;;;;30.33;22.42;;;11.80;99.90;;;;;;4927114;29;20067;-84
2022/10/21 04:45:55;;;;;;;30.58;22.30;;;11.80;99.90;;;;;;4909307;29;20043;-84
2022/10/21 04:48:22;;;;;;;33.60;24.30;;;11.70;99.90;;;;;;4916308;29;20028;-84
2022/10/21 04:50:48;;;;;;;41.50;27.45;;;11.80;99.90;;;;;;4928993;29;20059;-84
2022/10/21 04:53:15;;;;;;;46.17;28.83;;;11.80;99.90;;;;;;4943323;28;20520;-84
2022/10/21 04:55:52;;;;;;;144.23;42.08;;;11.80;99.90;;;;;;4941941;28;20088;-84
2022/10/21 04:58:21;;;;;;;34.47;24.60;;;11.80;99.90;;;;;;4903224;29;20043;-84
2022/10/21 05:01:05;;;;;;;72.00;27.63;;;11.90;99.90;;;;;;4918364;29;20048;-85
2022/10/21 05:03:31;;;;;;;75.60;32.80;;;12.00;99.90;;;;;;4926061;29;20497;-84
2022/10/21 05:05:58;;;;;;;39.50;26.48;;;11.80;99.90;;;;;;4943255;28;20047;-84
2022/10/21 05:08:27;;;;;;;79.65;34.72;;;11.90;99.90;;;;;;4902053;29;20092;-84
2022/10/21 05:11:00;;;;;;;102.95;36.72;;;11.80;99.90;;;;;;4929235;29;20054;-84
2022/10/21 05:13:30;;;;;;;49.70;28.55;;;11.80;99.90;;;;;;4928613;29;20047;-84
2022/10/21 05:16:02;;;;;;;;;;;11.90;99.90;;;;;;4933000;29;20373;-84
2022/10/21 05:18:28;;;;;;;183.15;40.90;;;11.80;99.90;;;;;;4925295;29;19970;-84
2022/10/21 05:20:55;;;;;;;118.93;36.28;;;11.90;99.90;;;;;;4932157;29;20047;-84
2022/10/21 05:23:43;;;;;;;102.80;34.97;;;11.60;99.90;;;;;;4926100;29;20504;-85
2022/10/21 05:26:15;;;;;;;288.07;53.70;;;11.90;99.90;;;;;;4926218;29;20091;-85
2022/10/21 05:29:04;;;;;;;260.77;44.33;;;11.90;99.90;;;;;;4926547;29;20051;-85
2022/10/21 05:31:29;;;;;;;332.63;50.92;;;12.60;99.90;;;;;;4939832;28;20083;-84
2022/10/21 05:33:56;;;;;;;359.30;52.88;;;12.00;99.90;;;;;;4926609;29;20098;-84
2022/10/21 05:36:21;;;;;;;272.65;43.22;;;12.50;99.90;;;;;;4930650;29;20040;-84
2022/10/21 05:38:47;;;;;;;189.88;37.42;;;11.90;99.90;;;;;;4945214;28;20051;-84
2022/10/21 05:41:13;;;;;;;338.35;51.30;;;11.90;99.90;;;;;;4908952;29;20066;-84
2022/10/21 05:43:40;;;;;;;88.75;28.98;;;11.90;99.90;;;;;;4942388;28;20044;-84
2022/10/21 05:46:07;;;;;;;200.27;40.17;;;11.90;99.90;;;;;;4912461;29;20432;-85
2022/10/21 05:48:55;;;;;;;186.00;37.90;;;11.80;99.90;;;;;;4929422;29;20042;-84
2022/10/21 05:51:33;;;;;;;223.77;38.75;;;11.90;99.90;;;;;;4924792;29;20047;-84
2022/10/21 05:53:59;;;;;;;294.58;42.15;;;11.90;99.90;;;;;;4900738;29;20063;-85
2022/10/21 05:56:33;;;;;;;133.45;31.75;;;11.90;99.90;;;;;;4927395;29;20048;-84
2022/10/21 05:58:59;;;;;;;130.60;31.58;;;11.80;99.90;;;;;;4907739;29;20048;-84
2022/10/21 06:01:26;;;;;;;161.88;39.38;;;11.80;99.90;;;;;;4938382;28;20417;-84
2022/10/21 06:03:51;;;;;;;69.82;27.10;;;11.70;99.90;;;;;;4892528;29;20052;-84
2022/10/21 06:06:17;;;;;;;239.18;48.63;;;11.80;99.90;;;;;;4913250;29;20511;-85
2022/10/21 06:08:43;;;;;;;64.97;30.25;;;11.70;99.90;;;;;;4911094;29;20126;-84
2022/10/21 06:11:14;;;;;;;97.88;31.13;;;11.70;99.90;;;;;;4942022;28;20054;-85
2022/10/21 06:13:42;;;;;;;38.00;24.55;;;11.70;99.90;;;;;;4925409;29;20044;-83
2022/10/21 06:16:10;;;;;;;86.00;34.30;;;11.70;99.90;;;;;;4926540;29;20048;-85
2022/10/21 06:18:36;;;;;;;46.75;28.10;;;11.70;99.90;;;;;;4915319;29;20059;-85
2022/10/21 06:21:02;;;;;;;34.25;24.85;;;12.10;99.90;;;;;;4915969;29;20095;-84
2022/10/21 06:23:31;;;;;;;43.42;26.02;;;11.60;99.90;;;;;;4928877;29;20040;-85
2022/10/21 06:26:12;;;;;;;47.35;27.83;;;11.60;99.90;;;;;;4927818;29;20039;-85
2022/10/21 06:28:40;;;;;;;51.88;27.58;;;11.60;99.90;;;;;;4926723;29;20064;-85
2022/10/21 06:31:07;;;;;;;39.88;25.73;;;11.70;99.90;;;;;;4925616;29;20117;-84
2022/10/21 06:33:33;;;;;;;53.70;29.67;;;11.70;99.90;;;;;;4939169;28;20051;-85
2022/10/21 06:35:59;;;;;;;45.38;26.65;;;11.70;99.90;;;;;;4927665;29;20040;-85
2022/10/21 06:38:25;;;;;;;52.55;29.95;;;11.70;99.90;;;;;;4925895;29;20046;-85
2022/10/21 06:40:51;;;;;;;55.60;27.83;;;11.80;99.90;;;;;;4928360;29;20475;-85
2022/10/21 06:43:17;;;;;;;59.08;30.55;;;11.80;99.90;;;;;;4940870;28;20051;-84
2022/10/21 06:45:43;;;;;;;56.33;30.02;;;11.90;99.90;;;;;;4907698;29;20051;-85
2022/10/21 06:48:09;;;;;;;56.72;28.90;;;11.90;99.90;;;;;;4924085;29;20487;-84
2022/10/21 06:50:38;;;;;;;57.17;28.20;;;12.00;99.90;;;;;;4939591;28;20488;-85
2022/10/21 06:53:04;;;;;;;50.33;29.58;;;12.30;99.90;;;;;;4906973;29;20054;-84
2022/10/21 06:55:33;;;;;;;66.40;29.17;;;12.10;99.90;;;;;;4923687;29;20047;-85
2022/10/21 06:57:59;;;;;;;46.95;26.33;;;12.10;99.90;;;;;;4921869;29;20466;-85
2022/10/21 07:00:24;;;;;;;62.97;29.25;;;12.20;99.90;;;;;;4907956;29;20052;-85
2022/10/21 07:02:50;;;;;;;46.22;27.42;;;12.20;99.90;;;;;;4906959;29;20114;-84
2022/10/21 07:05:15;;;;;;;52.53;28.00;;;12.40;99.90;;;;;;4938446;28;20043;-84
2022/10/21 07:07:44;;;;;;;45.40;25.17;;;12.40;99.90;;;;;;4908936;29;20055;-84
2022/10/21 07:10:09;;;;;;;48.38;26.02;;;12.50;99.90;;;;;;4925385;29;20036;-84
2022/10/21 07:12:35;;;;;;;47.55;28.10;;;12.50;99.90;;;;;;4924915;29;20078;-85
2022/10/21 07:15:01;;;;;;;40.67;25.40;;;12.60;99.90;;;;;;4938715;28;20050;-84
2022/10/21 07:17:29;;;;;;;42.05;25.95;;;12.60;99.90;;;;;;4902988;29;20040;-84
2022/10/21 07:19:55;;;;;;;43.78;26.55;;;12.70;99.90;;;;;;4942301;28;20051;-85
2022/10/21 07:22:20;;;;;;;36.42;24.73;;;12.70;99.90;;;;;;4940791;28;20598;-84
2022/10/21 07:24:48;;;;;;;46.78;26.80;;;12.80;99.90;;;;;;4909688;29;20106;-84
2022/10/21 07:27:14;;;;;;;35.25;23.05;;;12.80;99.90;;;;;;4928784;29;20044;-85
2022/10/21 07:29:39;;;;;;;35.60;23.73;;;12.90;99.90;;;;;;4924113;29;20532;-85
2022/10/21 07:32:08;;;;;;;41.78;22.95;;;12.80;99.90;;;;;;4940077;28;20119;-85
2022/10/21 07:34:56;;;;;;;42.70;24.92;;;12.80;99.90;;;;;;4924185;29;20046;-84
2022/10/21 07:37:22;;;;;;;49.85;26.83;;;12.80;99.90;;;;;;4942122;28;20499;-85
2022/10/21 07:40:08;;;;;;;39.50;24.33;;;12.90;99.90;;;;;;4914927;29;20059;-84
2022/10/21 07:42:40;;;;;;;48.45;25.98;;;12.90;99.90;;;;;;4924443;29;20055;-84
2022/10/21 07:45:05;;;;;;;39.63;24.00;;;12.90;99.90;;;;;;4914984;29;20094;-85
2022/10/21 07:47:31;;;;;;;31.92;22.15;;;13.00;99.90;;;;;;4940523;28;20044;-84
2022/10/21 07:49:59;;;;;;;35.30;21.33;;;13.00;99.90;;;;;;4929428;29;20038;-84
2022/10/21 07:52:27;;;;;;;30.95;21.23;;;13.00;99.90;;;;;;4946689;28;20504;-85
2022/10/21 07:54:53;;;;;;;35.33;22.70;;;13.00;99.90;;;;;;4931971;29;20096;-85
2022/10/21 07:57:28;;;;;;;30.75;20.65;;;13.10;99.90;;;;;;4931537;28;20047;-85
2022/10/21 07:59:53;;;;;;;29.27;21.38;;;13.20;99.90;;;;;;4933178;28;20048;-85
2022/10/21 08:02:22;;;;;;;29.98;21.92;;;13.20;99.90;;;;;;4932431;29;20050;-85
2022/10/21 08:05:25;;;;;;;25.52;20.40;;;13.20;99.90;;;;;;4931800;29;20039;-85
2022/10/21 08:07:51;;;;;;;33.17;23.38;;;13.30;99.90;;;;;;4928654;29;20044;-85
2022/10/21 08:10:17;;;;;;;30.80;21.30;;;13.40;99.90;;;;;;4945706;28;20044;-85
2022/10/21 08:12:42;;;;;;;31.10;19.48;;;13.50;99.90;;;;;;4914040;29;20393;-84
2022/10/21 08:15:09;;;;;;;39.40;20.85;;;13.60;99.90;;;;;;4915505;29;20137;-85
2022/10/21 08:17:34;;;;;;;29.60;20.63;;;13.60;99.90;;;;;;4945777;28;20139;-86
2022/10/21 08:20:00;;;;;;;29.95;19.77;;;13.70;99.90;;;;;;4949048;28;20683;-85
2022/10/21 08:22:25;;;;;;;30.55;20.13;;;13.90;99.90;;;;;;4930405;29;20047;-84
2022/10/21 08:24:51;;;;;;;30.17;19.77;;;13.90;99.90;;;;;;4932071;29;20070;-85
2022/10/21 08:27:17;;;;;;;32.45;20.13;;;14.00;99.90;;;;;;4912106;29;20040;-84
2022/10/21 08:29:46;;;;;;;27.58;19.90;;;14.10;99.90;;;;;;4910508;29;20086;-85
2022/10/21 08:32:14;;;;;;;24.85;19.10;;;14.20;99.90;;;;;;4950387;28;20060;-85
2022/10/21 08:34:40;;;;;;;23.77;17.38;;;14.30;99.90;;;;;;4916888;29;20563;-85
2022/10/21 08:37:09;;;;;;;19.17;16.00;;;14.30;99.90;;;;;;4936434;29;20055;-84
2022/10/21 08:39:34;;;;;;;21.58;15.77;;;14.40;99.90;;;;;;4914355;29;20071;-84
2022/10/21 08:42:05;;;;;;;22.27;15.88;;;14.50;99.90;;;;;;4931398;29;20047;-85
2022/10/21 08:44:38;;;;;;;17.30;14.32;;;14.60;99.90;;;;;;4947109;28;20114;-84
2022/10/21 08:47:07;;;;;;;23.65;15.75;;;14.70;99.90;;;;;;4932999;29;20409;-85
2022/10/21 08:49:45;;;;;;;20.52;15.35;;;14.80;99.90;;;;;;4930897;29;20052;-85
2022/10/21 08:52:39;;;;;;;17.05;14.57;;;14.90;99.90;;;;;;4931974;29;20103;-84
2022/10/21 08:55:54;;;;;;;17.13;13.98;;;15.00;99.90;;;;;;4914323;29;20060;-85
2022/10/21 08:58:22;;;;;;;16.30;14.02;;;15.10;99.90;;;;;;4896059;29;20052;-85
2022/10/21 09:00:55;;;;;;;22.25;13.32;;;15.10;99.90;;;;;;4921047;29;20044;-85
2022/10/21 09:03:53;;;;;;;17.23;13.70;;;15.10;99.90;;;;;;4918861;29;20055;-84
2022/10/21 09:06:37;;;;;;;15.63;12.77;;;15.20;99.90;;;;;;4911346;29;20054;-85
2022/10/21 09:09:15;;;;;;;18.33;12.98;;;15.30;99.90;;;;;;4926761;29;20040;-85
2022/10/21 09:12:03;;;;;;;16.98;11.50;;;15.60;99.90;;;;;;4949001;28;20043;-85
2022/10/21 09:14:58;;;;;;;15.55;12.32;;;15.30;99.90;;;;;;4912567;29;20063;-85
2022/10/21 09:17:24;;;;;;;17.48;11.95;;;15.40;99.90;;;;;;4892954;29;20070;-84
2022/10/21 09:20:08;;;;;;;15.00;11.43;;;15.40;99.90;;;;;;4928914;29;20156;-84
2022/10/21 09:23:28;;;;;;;12.05;10.85;;;15.40;99.90;;;;;;4944745;28;20050;-85
2022/10/21 09:26:01;;;;;;;15.25;11.02;;;15.50;99.90;;;;;;4897873;29;20044;-85
2022/10/21 09:28:33;;;;;;;14.63;10.73;;;16.10;99.90;;;;;;4882920;29;20051;-85
2022/10/21 09:31:01;;;;;;;14.68;10.27;;;15.50;99.90;;;;;;4897782;29;20048;-84
2022/10/21 09:33:31;;;;;;;15.35;10.07;;;15.50;99.90;;;;;;4899739;29;20054;-84
2022/10/21 09:36:22;;;;;;;15.00;10.95;;;15.60;99.90;;;;;;4907082;29;20040;-84
2022/10/21 09:39:16;;;;;;;18.55;11.07;;;15.70;99.90;;;;;;4929275;29;20055;-85
2022/10/21 09:41:44;;;;;;;15.50;9.80;;;15.80;99.90;;;;;;4906428;29;20583;-84
2022/10/21 09:44:18;;;;;;;14.63;9.15;;;15.90;99.90;;;;;;4941291;28;20469;-85
2022/10/21 09:46:45;;;;;;;11.93;10.68;;;16.00;99.90;;;;;;4940409;28;20055;-84
2022/10/21 09:49:31;;;;;;;11.77;9.82;;;16.00;99.90;;;;;;4915936;29;20031;-84
2022/10/21 09:51:58;;;;;;;;;;;16.20;99.90;;;;;;4916931;29;20079;-85
2022/10/21 09:54:27;;;;;;;12.55;10.18;;;16.10;99.90;;;;;;4943149;28;19922;-84
2022/10/21 09:57:32;;;;;;;13.35;9.23;;;16.20;99.90;;;;;;4930951;29;20111;-84
2022/10/21 10:00:01;;;;;;;15.98;8.98;;;16.20;99.90;;;;;;4939818;28;20122;-84
2022/10/21 10:02:34;;;;;;;14.02;9.27;;;16.30;99.90;;;;;;4939597;28;20051;-84
2022/10/21 10:08:46;;;;;;;12.82;9.07;;;16.30;99.90;;;;;;4930830;29;20052;-84
2022/10/21 10:11:22;;;;;;;11.98;8.75;;;16.60;99.90;;;;;;4922493;29;20042;-84
2022/10/21 10:13:52;;;;;;;14.82;8.40;;;16.20;99.90;;;;;;4926236;29;20054;-84
2022/10/21 10:16:42;;;;;;;11.32;8.32;;;16.30;99.90;;;;;;4942900;28;20042;-84
2022/10/21 10:19:36;;;;;;;10.00;8.50;;;16.30;99.90;;;;;;4891456;29;20066;-84
2022/10/21 10:22:10;;;;;;;11.60;8.23;;;16.40;99.90;;;;;;4908658;29;20412;-84
2022/10/21 10:24:39;;;;;;;12.60;7.45;;;16.50;99.90;;;;;;4925965;29;20594;-84
2022/10/21 10:27:12;;;;;;;9.63;7.65;;;16.50;99.90;;;;;;4933009;29;20039;-84
2022/10/21 10:30:00;;;;;;;13.00;8.13;;;16.50;99.90;;;;;;4912924;29;20051;-84
2022/10/21 10:32:30;;;;;;;10.48;7.90;;;16.60;99.90;;;;;;4942232;28;20043;-84
2022/10/21 10:35:01;;;;;;;11.07;8.00;;;16.60;99.90;;;;;;4908745;29;20040;-84
2022/10/21 10:41:16;;;;;;;10.73;7.80;;;16.70;99.90;;;;;;4923315;29;20618;-84
2022/10/21 10:43:52;;;;;;;13.18;7.40;;;16.70;99.90;;;;;;4940192;28;20532;-84
2022/10/21 10:46:41;;;;;;;15.95;7.85;;;16.80;99.90;;;;;;4944847;28;20035;-85
2022/10/21 10:49:13;;;;;;;10.10;6.72;;;16.70;99.90;;;;;;4942542;28;20038;-84
2022/10/21 10:51:46;;;;;;;9.30;6.65;;;16.80;99.90;;;;;;4956726;28;20502;-84
2022/10/21 10:54:32;;;;;;;8.57;6.18;;;16.80;99.90;;;;;;4926052;29;20102;-84
2022/10/21 10:57:34;;;;;;;11.63;6.47;;;16.80;99.90;;;;;;4940462;28;20048;-84
2022/10/21 11:00:54;;;;;;;12.57;7.00;;;16.80;99.90;;;;;;4943637;28;20108;-84
2022/10/21 11:03:56;;;;;;;12.15;6.13;;;17.00;99.90;;;;;;4918870;29;20106;-84
2022/10/21 11:06:59;;;;;;;10.85;6.25;;;17.00;99.90;;;;;;4925048;29;20051;-85
2022/10/21 11:13:16;;;;;;;8.38;5.80;;;17.00;99.90;;;;;;4927164;29;20051;-84
2022/10/21 11:15:54;;;;;;;8.98;6.15;;;17.00;99.90;;;;;;4940680;28;20107;-85
2022/10/21 11:18:42;;;;;;;14.52;6.50;;;17.00;99.90;;;;;;4932122;29;20035;-85
2022/10/21 11:21:48;;;;;;;10.02;5.80;;;17.00;99.90;;;;;;4906976;29;20233;-85
2022/10/21 11:24:41;;;;;;;7.65;6.13;;;17.00;99.90;;;;;;4942358;28;20047;-85
2022/10/21 11:27:25;;;;;;;10.00;5.90;;;17.10;99.90;;;;;;4941207;28;20052;-85
2022/10/21 11:30:03;;;;;;;11.60;6.13;;;16.90;99.90;;;;;;4910667;29;20464;-85
2022/10/21 11:32:45;;;;;;;9.82;5.88;;;17.10;99.90;;;;;;4921914;29;20048;-85
2022/10/21 11:35:20;;;;;;;8.77;5.30;;;17.10;99.90;;;;;;4907047;29;20035;-85
2022/10/21 11:38:09;;;;;;;;;;;17.30;99.90;;;;;;4923569;29;20078;-85
2022/10/21 11:41:02;;;;;;;12.88;6.35;;;17.10;99.90;;;;;;4939753;28;19923;-85
2022/10/21 11:44:07;;;;;;;12.80;6.25;;;17.00;99.90;;;;;;4933846;28;20380;-85
2022/10/21 11:46:59;;;;;;;8.35;5.55;;;17.00;99.90;;;;;;4883071;29;20056;-84
2022/10/21 11:50:05;;;;;;;11.00;5.72;;;17.10;99.90;;;;;;4940530;28;20098;-85
2022/10/21 11:53:10;;;;;;;10.18;5.15;;;17.10;99.90;;;;;;4911494;29;20059;-85
2022/10/21 11:55:57;;;;;;;11.38;5.40;;;17.00;99.90;;;;;;4942630;28;20048;-84
2022/10/21 11:58:39;;;;;;;9.77;5.90;;;17.10;99.90;;;;;;4908857;29;20044;-85
2022/10/21 12:01:28;;;;;;;11.32;6.85;;;17.10;99.90;;;;;;4941952;28;20050;-84
2022/10/21 12:04:18;;;;;;;9.57;6.30;;;17.60;99.90;;;;;;4924346;29;20055;-85
2022/10/21 12:06:59;;;;;;;9.13;5.65;;;17.10;99.90;;;;;;4923622;29;20314;-85
2022/10/21 12:09:42;;;;;;;8.55;5.28;;;17.10;99.90;;;;;;4924204;29;20458;-84
2022/10/21 12:12:18;;;;;;;11.27;6.78;;;17.20;99.90;;;;;;4939803;28;20046;-84
2022/10/21 12:14:53;;;;;;;12.85;6.13;;;17.10;99.90;;;;;;4940592;28;20044;-84
2022/10/21 12:17:22;;;;;;;8.45;5.43;;;17.10;99.90;;;;;;4912178;29;20047;-85
2022/10/21 12:20:05;;;;;;;11.23;5.63;;;17.20;99.90;;;;;;4925133;29;20040;-85
2022/10/21 12:22:32;;;;;;;9.55;5.47;;;17.10;99.90;;;;;;4908121;29;20067;-84
2022/10/21 12:25:32;;;;;;;9.63;5.43;;;17.10;99.90;;;;;;4908864;29;20052;-85
2022/10/21 12:28:25;;;;;;;11.98;5.75;;;17.10;99.90;;;;;;4889500;29;20144;-85
2022/10/21 12:31:12;;;;;;;8.65;5.78;;;17.00;99.90;;;;;;4913707;29;20585;-84
2022/10/21 12:33:53;;;;;;;8.95;5.50;;;17.00;99.90;;;;;;4923461;29;20040;-84
2022/10/21 12:36:50;;;;;;;10.07;5.43;;;17.00;99.90;;;;;;4930329;29;20043;-85
2022/10/21 12:39:37;;;;;;;8.40;5.32;;;17.00;99.90;;;;;;4929205;29;20042;-84
2022/10/21 12:42:16;;;;;;;13.38;6.40;;;17.10;99.90;;;;;;4913237;29;20044;-84
2022/10/21 12:44:47;;;;;;;9.65;6.05;;;17.00;99.90;;;;;;4928917;29;20115;-85
2022/10/21 12:47:35;;;;;;;12.02;5.80;;;17.10;99.90;;;;;;4927834;29;20099;-85
2022/10/21 12:50:15;;;;;;;13.40;6.20;;;17.00;99.90;;;;;;4924241;29;20735;-85
2022/10/21 12:52:48;;;;;;;9.80;6.88;;;17.80;99.90;;;;;;4943128;28;20070;-85
2022/10/21 12:55:24;;;;;;;8.38;5.78;;;17.10;99.90;;;;;;4945268;28;20050;-85
2022/10/21 12:58:01;;;;;;;11.80;5.95;;;17.00;99.90;;;;;;4914139;29;20075;-85
2022/10/21 13:00:33;;;;;;;11.93;6.50;;;17.60;99.90;;;;;;4928741;29;20440;-85
2022/10/21 13:03:07;;;;;;;8.57;6.40;;;17.10;99.90;;;;;;4932426;29;20043;-84
2022/10/21 13:05:36;;;;;;;11.45;5.90;;;17.30;99.90;;;;;;4943694;28;20174;-85
2022/10/21 13:08:23;;;;;;;10.07;6.25;;;17.00;99.90;;;;;;4926650;29;20131;-85
2022/10/21 13:11:07;;;;;;;10.73;6.25;;;17.10;99.90;;;;;;4944939;28;20105;-85
2022/10/21 13:13:43;;;;;;;10.07;6.53;;;17.40;99.90;;;;;;4912354;29;20086;-85
2022/10/21 13:16:18;;;;;;;11.75;6.90;;;16.80;99.90;;;;;;4915748;29;20118;-84
2022/10/21 13:18:57;;;;;;;11.75;6.25;;;16.90;99.90;;;;;;4912681;29;20504;-84
2022/10/21 13:21:35;;;;;;;13.65;6.65;;;16.90;99.90;;;;;;4931379;29;20504;-85
2022/10/21 13:24:15;;;;;;;8.88;6.65;;;16.90;99.90;;;;;;4940385;28;20075;-85